Time;durP1;ratioP1;P1;durP2;ratioP2;P2;SDS_P1;SDS_P2;PMS_P1;PMS_P2;Temp;Humidity;BMP_temperature;BMP_pressure;BME280_temperature;BME280_humidity;BME280_pressure;Samples;Min_cycle;Max_cycle;Signal;HPM_P1;HPM_P2
2023/12/18 00:01:10;;;;;;;4.75;3.97;;;;;;;;;;4995398;28;20026;-67
2023/12/18 00:03:36;;;;;;;5.18;3.78;;;;;;;;;;4995507;28;20042;-67
2023/12/18 00:06:02;;;;;;;5.18;3.72;;;;;;;;;;4995704;28;20526;-68
2023/12/18 00:08:28;;;;;;;4.70;3.92;;;;;;;;;;4995307;28;20125;-69
2023/12/18 00:10:53;;;;;;;5.85;3.85;;;;;;;;;;4995551;28;20072;-67
2023/12/18 00:13:19;;;;;;;3.97;3.53;;;;;;;;;;4995253;28;20023;-68
2023/12/18 00:15:44;;;;;;;6.85;3.47;;;;;;;;;;4995392;28;20092;-67
2023/12/18 00:18:10;;;;;;;5.30;3.80;;;;;;;;;;4994559;28;20557;-67
2023/12/18 00:20:35;;;;;;;5.00;3.83;;;;;;;;;;4995143;28;20030;-67
2023/12/18 00:23:01;;;;;;;3.85;3.42;;;;;;;;;;4994849;28;20054;-71
2023/12/18 08:51:08;;;;;;;3.97;3.05;;;;;;;;;;5242420;23;20078;-72
2023/12/18 08:53:33;;;;;;;3.08;2.63;;;;;;;;;;4946449;29;20027;-73
2023/12/18 08:55:59;;;;;;;3.28;2.97;;;;;;;;;;4946326;29;20439;-73
2023/12/18 08:58:28;;;;;;;3.58;3.10;;;;;;;;;;4944705;29;20038;-72
2023/12/18 09:00:53;;;;;;;3.47;3.17;;;;;;;;;;4944151;29;20035;-72
2023/12/18 09:03:20;;;;;;;4.32;3.05;;;;;;;;;;4946842;29;20028;-70
2023/12/18 09:05:46;;;;;;;3.97;3.25;;;;;;;;;;4956615;29;20039;-71
2023/12/18 09:08:13;;;;;;;3.50;3.00;;;;;;;;;;4955083;29;20023;-71
2023/12/18 09:10:42;;;;;;;3.58;3.15;;;;;;;;;;4932556;29;20075;-69
2023/12/18 09:13:07;;;;;;;3.95;3.13;;;;;;;;;;4936406;29;20036;-70
2023/12/18 09:15:33;;;;;;;4.18;3.35;;;;;;;;;;4936123;29;20099;-71
2023/12/18 09:17:58;;;;;;;4.32;3.08;;;;;;;;;;4943286;29;20041;-70
2023/12/18 09:20:24;;;;;;;3.53;3.22;;;;;;;;;;4955236;29;20031;-70
2023/12/18 09:22:51;;;;;;;3.88;3.13;;;;;;;;;;4955320;29;20031;-70
2023/12/18 09:25:18;;;;;;;3.53;3.13;;;;;;;;;;4953727;28;20147;-70
2023/12/18 09:27:43;;;;;;;3.28;2.95;;;;;;;;;;4955171;29;20098;-70
2023/12/18 09:30:09;;;;;;;3.55;3.00;;;;;;;;;;4954920;29;20031;-71
2023/12/18 09:32:35;;;;;;;3.85;3.05;;;;;;;;;;4955058;29;20450;-72
2023/12/18 09:35:01;;;;;;;3.72;3.30;;;;;;;;;;4950928;29;20051;-70
2023/12/18 09:37:27;;;;;;;3.40;2.85;;;;;;;;;;4954671;29;20550;-70
2023/12/18 09:39:53;;;;;;;3.83;3.00;;;;;;;;;;4954736;29;20078;-71
2023/12/18 09:42:18;;;;;;;3.50;3.20;;;;;;;;;;4957391;28;20035;-71
2023/12/18 09:44:46;;;;;;;3.38;2.90;;;;;;;;;;4973045;28;20023;-71
2023/12/18 09:47:13;;;;;;;3.70;3.30;;;;;;;;;;4973762;28;20023;-73
2023/12/18 09:49:39;;;;;;;3.38;2.85;;;;;;;;;;4974039;28;20073;-71
2023/12/18 09:52:07;;;;;;;3.03;2.72;;;;;;;;;;4956727;28;20427;-72
2023/12/18 09:54:34;;;;;;;3.85;3.00;;;;;;;;;;4957782;28;20165;-71
2023/12/18 09:57:02;;;;;;;3.53;2.80;;;;;;;;;;4961581;28;20027;-72
2023/12/18 09:59:28;;;;;;;4.32;2.95;;;;;;;;;;4945309;28;20030;-73
2023/12/18 10:01:54;;;;;;;3.35;2.97;;;;;;;;;;4953853;28;20028;-73
2023/12/18 10:04:20;;;;;;;5.10;3.03;;;;;;;;;;4924324;29;20043;-71
2023/12/18 10:06:46;;;;;;;7.32;3.15;;;;;;;;;;4936988;29;20371;-71
2023/12/18 10:09:15;;;;;;;4.03;3.10;;;;;;;;;;4954338;29;20027;-72
2023/12/18 10:11:44;;;;;;;4.77;3.00;;;;;;;;;;4954350;29;20027;-70
2023/12/18 10:14:13;;;;;;;3.72;3.00;;;;;;;;;;4954453;29;20403;-69
2023/12/18 10:16:39;;;;;;;5.35;3.00;;;;;;;;;;4954377;29;20090;-69
2023/12/18 10:19:05;;;;;;;5.28;3.00;;;;;;;;;;4954227;29;20089;-69
2023/12/18 10:21:31;;;;;;;5.25;2.83;;;;;;;;;;4954132;29;20102;-69
2023/12/18 10:23:57;;;;;;;10.00;3.38;;;;;;;;;;4954760;29;20384;-72
2023/12/18 10:26:23;;;;;;;3.65;2.75;;;;;;;;;;4937091;29;20472;-69
2023/12/18 10:28:52;;;;;;;3.70;3.08;;;;;;;;;;4953099;29;20110;-70
2023/12/18 10:31:20;;;;;;;6.07;3.30;;;;;;;;;;4941182;29;20061;-70
2023/12/18 10:33:46;;;;;;;7.55;3.30;;;;;;;;;;4935117;29;20552;-69
2023/12/18 10:36:15;;;;;;;4.15;3.00;;;;;;;;;;4936545;29;20051;-70
2023/12/18 10:38:41;;;;;;;3.97;2.95;;;;;;;;;;4938922;29;20404;-70
2023/12/18 10:41:09;;;;;;;4.20;3.05;;;;;;;;;;4939073;29;20031;-70
2023/12/18 10:43:36;;;;;;;3.60;3.17;;;;;;;;;;4945747;29;20016;-71
2023/12/18 10:46:03;;;;;;;6.63;2.90;;;;;;;;;;4959842;28;20034;-69
2023/12/18 10:48:29;;;;;;;5.13;3.17;;;;;;;;;;4958211;29;20383;-68
2023/12/18 10:50:56;;;;;;;3.58;3.00;;;;;;;;;;4957949;29;20043;-70
2023/12/18 10:53:25;;;;;;;2.95;2.53;;;;;;;;;;4960644;28;20031;-74
2023/12/18 10:55:52;;;;;;;3.40;3.00;;;;;;;;;;4959994;29;20031;-68
2023/12/18 10:58:19;;;;;;;7.05;2.88;;;;;;;;;;4955391;28;20058;-69
2023/12/18 11:00:45;;;;;;;6.95;3.20;;;;;;;;;;4953628;28;20031;-70
2023/12/18 11:03:13;;;;;;;5.63;3.33;;;;;;;;;;4949785;28;20372;-72
2023/12/18 11:05:40;;;;;;;4.22;3.53;;;;;;;;;;4964179;28;20034;-70
2023/12/18 11:08:06;;;;;;;4.68;2.80;;;;;;;;;;4960205;29;20502;-69
2023/12/18 11:10:32;;;;;;;4.82;3.10;;;;;;;;;;4960012;29;20082;-69
2023/12/18 11:13:16;;;;;;;4.18;3.30;;;;;;;;;;4956649;29;20027;-68
2023/12/18 11:15:54;;;;;;;10.45;3.90;;;;;;;;;;4941267;29;20054;-70
2023/12/18 11:18:47;;;;;;;4.47;2.90;;;;;;;;;;4939374;29;20035;-69
2023/12/18 11:21:13;;;;;;;6.43;2.95;;;;;;;;;;4937892;29;20090;-70
2023/12/18 11:23:42;;;;;;;7.28;3.20;;;;;;;;;;4941283;29;20024;-71
2023/12/18 11:26:10;;;;;;;5.15;3.15;;;;;;;;;;4942441;29;20114;-70
2023/12/18 11:28:36;;;;;;;8.30;3.15;;;;;;;;;;4924481;29;20032;-68
2023/12/18 11:31:05;;;;;;;5.88;2.85;;;;;;;;;;4945037;29;20023;-73
2023/12/18 11:33:30;;;;;;;7.18;3.10;;;;;;;;;;4943816;29;20380;-70
2023/12/18 11:35:57;;;;;;;9.02;3.10;;;;;;;;;;4954701;29;20031;-74
2023/12/18 11:38:24;;;;;;;5.97;2.95;;;;;;;;;;4958719;29;20571;-74
2023/12/18 11:40:52;;;;;;;4.63;3.28;;;;;;;;;;4957473;29;20030;-74
2023/12/18 11:43:38;;;;;;;4.45;3.03;;;;;;;;;;4956161;29;20032;-69
2023/12/18 11:46:07;;;;;;;9.65;3.10;;;;;;;;;;4957383;29;20031;-69
2023/12/18 11:48:33;;;;;;;3.25;2.92;;;;;;;;;;4945690;28;20083;-70
2023/12/18 11:51:02;;;;;;;5.32;3.10;;;;;;;;;;4942042;29;20039;-70
2023/12/18 11:53:34;;;;;;;4.70;3.13;;;;;;;;;;4942055;29;20024;-69
2023/12/18 11:56:11;;;;;;;7.05;3.20;;;;;;;;;;4946544;29;20122;-71
2023/12/18 11:58:41;;;;;;;4.57;2.75;;;;;;;;;;4937870;29;20051;-67
2023/12/18 12:01:07;;;;;;;4.28;3.13;;;;;;;;;;4937077;29;20032;-68
2023/12/18 12:03:33;;;;;;;4.40;2.72;;;;;;;;;;4936204;29;20050;-68
2023/12/18 12:06:00;;;;;;;4.22;3.30;;;;;;;;;;4935394;29;20023;-68
2023/12/18 12:08:26;;;;;;;6.18;3.28;;;;;;;;;;4936565;29;20019;-68
2023/12/18 12:10:52;;;;;;;3.25;2.95;;;;;;;;;;4938189;29;20039;-68
2023/12/18 12:13:27;;;;;;;3.95;2.90;;;;;;;;;;4937201;29;20054;-68
2023/12/18 12:15:58;;;;;;;6.85;3.05;;;;;;;;;;4937557;29;20028;-69
2023/12/18 12:18:31;;;;;;;6.15;3.13;;;;;;;;;;4937480;29;20392;-71
2023/12/18 12:20:58;;;;;;;4.90;3.03;;;;;;;;;;4937532;29;20035;-68
2023/12/18 12:23:28;;;;;;;4.30;2.85;;;;;;;;;;4937431;29;20110;-68
2023/12/18 12:25:58;;;;;;;;;;;;;;;;;;4937652;29;20031;-68
2023/12/18 12:28:24;;;;;;;3.50;2.90;;;;;;;;;;4939069;29;19915;-68
2023/12/18 12:30:49;;;;;;;5.72;3.10;;;;;;;;;;4937113;29;20038;-68
2023/12/18 12:33:18;;;;;;;2.97;2.67;;;;;;;;;;4936999;29;20027;-69
2023/12/18 12:35:45;;;;;;;3.88;2.70;;;;;;;;;;4937265;29;20028;-69
2023/12/18 12:38:10;;;;;;;6.10;2.70;;;;;;;;;;4937569;29;20461;-69
2023/12/18 12:40:41;;;;;;;4.07;2.92;;;;;;;;;;4937173;29;20102;-68
2023/12/18 12:43:07;;;;;;;3.05;2.50;;;;;;;;;;4936874;29;20024;-68
2023/12/18 12:45:35;;;;;;;3.95;3.05;;;;;;;;;;4937486;29;20030;-69
2023/12/18 12:48:05;;;;;;;3.75;2.72;;;;;;;;;;4936844;29;20369;-70
2023/12/18 12:50:30;;;;;;;5.38;2.70;;;;;;;;;;4938182;29;20055;-70
2023/12/18 12:52:58;;;;;;;7.55;2.95;;;;;;;;;;4936754;29;20028;-69
2023/12/18 12:55:23;;;;;;;4.45;2.45;;;;;;;;;;4936878;29;20115;-69
2023/12/18 12:57:49;;;;;;;5.05;3.28;;;;;;;;;;4936410;29;20115;-68
2023/12/18 13:00:20;;;;;;;3.75;2.88;;;;;;;;;;4936566;29;20030;-70
2023/12/18 13:02:46;;;;;;;3.25;2.80;;;;;;;;;;4936821;29;20082;-69
2023/12/18 13:05:12;;;;;;;2.85;2.53;;;;;;;;;;4936345;29;20498;-69
2023/12/18 13:07:37;;;;;;;3.00;2.70;;;;;;;;;;4936506;29;20115;-69
2023/12/18 13:10:03;;;;;;;2.97;2.72;;;;;;;;;;4936600;29;20023;-69
2023/12/18 13:12:29;;;;;;;5.05;3.00;;;;;;;;;;4936275;29;20027;-69
2023/12/18 13:14:55;;;;;;;4.70;2.83;;;;;;;;;;4936605;29;20452;-69
2023/12/18 13:17:21;;;;;;;5.47;3.10;;;;;;;;;;4936318;29;20028;-71
2023/12/18 13:19:46;;;;;;;3.40;2.85;;;;;;;;;;4936438;29;20034;-70
2023/12/18 13:22:12;;;;;;;3.40;2.60;;;;;;;;;;4936125;29;20099;-70
2023/12/18 13:24:37;;;;;;;2.92;2.55;;;;;;;;;;4936586;29;20027;-69
2023/12/18 13:27:03;;;;;;;3.53;2.80;;;;;;;;;;4936114;29;20398;-70
2023/12/18 13:29:32;;;;;;;5.20;2.85;;;;;;;;;;4936755;29;20030;-69
2023/12/18 13:32:04;;;;;;;2.70;2.50;;;;;;;;;;4935996;29;20028;-69
2023/12/18 13:34:33;;;;;;;3.08;2.67;;;;;;;;;;4937048;29;20038;-69
2023/12/18 13:37:01;;;;;;;2.80;2.60;;;;;;;;;;4935882;29;20039;-70
2023/12/18 13:39:28;;;;;;;3.50;2.75;;;;;;;;;;4935767;29;20060;-69
2023/12/18 13:41:59;;;;;;;2.92;2.35;;;;;;;;;;4935823;29;20024;-70
2023/12/18 13:44:25;;;;;;;3.78;2.63;;;;;;;;;;4935724;29;20027;-69
2023/12/18 13:46:51;;;;;;;3.35;2.47;;;;;;;;;;4935962;29;20035;-70
2023/12/18 13:49:18;;;;;;;3.92;3.38;;;;;;;;;;4935898;29;20031;-69
2023/12/18 13:51:44;;;;;;;4.05;2.80;;;;;;;;;;4935495;29;20119;-70
2023/12/18 13:54:10;;;;;;;3.47;2.78;;;;;;;;;;4935745;29;20370;-70
2023/12/18 13:56:36;;;;;;;5.00;3.28;;;;;;;;;;4935576;29;20106;-69
2023/12/18 13:59:02;;;;;;;3.72;2.42;;;;;;;;;;4935552;29;20473;-69
2023/12/18 14:01:28;;;;;;;4.28;2.67;;;;;;;;;;4935526;29;20032;-70
2023/12/18 14:03:53;;;;;;;3.50;3.13;;;;;;;;;;4935501;29;20031;-70
2023/12/18 14:06:23;;;;;;;3.50;2.83;;;;;;;;;;4918406;29;20031;-70
2023/12/18 14:08:49;;;;;;;3.03;2.72;;;;;;;;;;4935385;29;20032;-69
2023/12/18 14:11:15;;;;;;;3.08;2.63;;;;;;;;;;4934979;29;20103;-70
2023/12/18 14:13:41;;;;;;;5.38;2.67;;;;;;;;;;4935433;29;20076;-70
2023/12/18 14:16:06;;;;;;;3.60;2.63;;;;;;;;;;4935292;29;20033;-70
2023/12/18 14:18:33;;;;;;;3.45;3.00;;;;;;;;;;4935285;29;20087;-69
2023/12/18 14:20:59;;;;;;;3.60;2.67;;;;;;;;;;4935301;29;20028;-70
2023/12/18 14:23:27;;;;;;;3.65;2.58;;;;;;;;;;4935081;29;20039;-70
2023/12/18 14:25:54;;;;;;;3.00;2.70;;;;;;;;;;4935239;29;20468;-70
2023/12/18 14:28:19;;;;;;;3.08;2.65;;;;;;;;;;4935515;29;20032;-70
2023/12/18 14:30:46;;;;;;;3.92;2.90;;;;;;;;;;4935458;29;20392;-70
2023/12/18 14:33:12;;;;;;;3.00;2.70;;;;;;;;;;4935308;29;20034;-70
2023/12/18 14:35:37;;;;;;;3.40;2.83;;;;;;;;;;4935381;29;20031;-70
2023/12/18 14:38:04;;;;;;;3.17;2.60;;;;;;;;;;4935017;29;20476;-70
2023/12/18 14:40:29;;;;;;;3.00;2.67;;;;;;;;;;4935191;29;20111;-69
2023/12/18 14:42:55;;;;;;;3.95;3.25;;;;;;;;;;4935081;29;20051;-69
2023/12/18 14:45:20;;;;;;;3.95;2.95;;;;;;;;;;4935050;29;20028;-68
2023/12/18 14:47:46;;;;;;;3.40;3.10;;;;;;;;;;4935090;29;20063;-69
2023/12/18 14:50:12;;;;;;;8.30;2.85;;;;;;;;;;4934925;29;20053;-69
2023/12/18 14:52:37;;;;;;;8.77;3.03;;;;;;;;;;4935528;29;20019;-69
2023/12/18 14:55:04;;;;;;;3.08;2.78;;;;;;;;;;4935055;29;20032;-68
2023/12/18 14:57:29;;;;;;;5.60;3.20;;;;;;;;;;4934872;29;20573;-69
2023/12/18 14:59:56;;;;;;;3.42;2.80;;;;;;;;;;4935018;29;20063;-69
2023/12/18 15:02:22;;;;;;;5.65;2.65;;;;;;;;;;4935138;29;20036;-69
2023/12/18 15:04:47;;;;;;;4.82;3.03;;;;;;;;;;4935234;29;20520;-69
2023/12/18 15:07:13;;;;;;;3.00;2.63;;;;;;;;;;4917844;29;20069;-69
2023/12/18 15:09:38;;;;;;;3.13;2.83;;;;;;;;;;4934864;29;20362;-70
2023/12/18 15:12:05;;;;;;;3.70;2.70;;;;;;;;;;4935167;29;20106;-68
2023/12/18 15:14:30;;;;;;;2.97;2.60;;;;;;;;;;4934778;29;20038;-69
2023/12/18 15:17:03;;;;;;;3.05;2.70;;;;;;;;;;4917730;29;20035;-68
2023/12/18 15:19:29;;;;;;;3.75;2.72;;;;;;;;;;4934921;29;20063;-68
2023/12/18 15:21:55;;;;;;;4.18;2.85;;;;;;;;;;4934765;29;20028;-68
2023/12/18 15:24:21;;;;;;;5.40;2.90;;;;;;;;;;5227872;23;20043;-68
2023/12/18 15:26:46;;;;;;;3.30;2.92;;;;;;;;;;4996298;28;20031;-68
2023/12/18 15:29:12;;;;;;;4.55;2.90;;;;;;;;;;4996199;28;20030;-68
2023/12/18 15:31:37;;;;;;;4.57;2.95;;;;;;;;;;4996286;28;20022;-68
2023/12/18 15:34:03;;;;;;;3.05;2.63;;;;;;;;;;4995804;28;20026;-68
2023/12/18 15:36:28;;;;;;;4.25;3.00;;;;;;;;;;4995739;28;20463;-67
2023/12/18 15:38:54;;;;;;;3.53;2.95;;;;;;;;;;4995986;28;20041;-67
2023/12/18 15:41:20;;;;;;;3.38;3.05;;;;;;;;;;4996815;28;20038;-67
2023/12/18 15:43:45;;;;;;;4.40;2.97;;;;;;;;;;4995942;28;20459;-67
2023/12/18 15:46:11;;;;;;;4.55;3.25;;;;;;;;;;4995952;28;20065;-67
2023/12/18 15:48:37;;;;;;;7.60;2.80;;;;;;;;;;4996048;28;20077;-68
2023/12/18 15:51:02;;;;;;;3.40;2.80;;;;;;;;;;4995716;28;20029;-68
2023/12/18 15:53:28;;;;;;;3.97;3.08;;;;;;;;;;4996903;28;20389;-68
2023/12/18 15:55:54;;;;;;;4.82;2.67;;;;;;;;;;4998139;28;20049;-68
2023/12/18 15:58:19;;;;;;;4.43;3.10;;;;;;;;;;4996953;28;20466;-66
2023/12/18 16:00:45;;;;;;;5.45;3.10;;;;;;;;;;4995738;28;20097;-67
2023/12/18 16:03:10;;;;;;;4.45;2.88;;;;;;;;;;4995666;28;20378;-67
2023/12/18 16:05:36;;;;;;;4.57;3.13;;;;;;;;;;4995823;28;20031;-67
2023/12/18 16:08:02;;;;;;;4.10;3.10;;;;;;;;;;4995705;28;20099;-67
2023/12/18 16:10:28;;;;;;;3.88;3.20;;;;;;;;;;4983735;28;20015;-66
2023/12/18 16:12:54;;;;;;;4.47;2.95;;;;;;;;;;4975991;28;20029;-67
2023/12/18 16:15:20;;;;;;;5.00;3.30;;;;;;;;;;4975850;28;20034;-67
2023/12/18 16:17:47;;;;;;;3.67;2.80;;;;;;;;;;4975963;28;20386;-66
2023/12/18 16:20:12;;;;;;;9.93;3.25;;;;;;;;;;4976064;28;20034;-69
2023/12/18 16:22:38;;;;;;;3.30;3.00;;;;;;;;;;4976002;28;20019;-66
2023/12/18 16:25:04;;;;;;;4.57;3.10;;;;;;;;;;4975150;28;20039;-69
2023/12/18 16:27:29;;;;;;;4.30;2.97;;;;;;;;;;4975464;28;20086;-66
2023/12/18 16:29:56;;;;;;;4.70;2.90;;;;;;;;;;4958286;28;20031;-66
2023/12/18 16:32:21;;;;;;;5.13;3.10;;;;;;;;;;4975804;28;20027;-66
2023/12/18 16:34:47;;;;;;;4.90;3.05;;;;;;;;;;4975161;28;20031;-66
2023/12/18 16:37:14;;;;;;;3.10;2.78;;;;;;;;;;4975336;28;20382;-67
2023/12/18 16:39:41;;;;;;;3.15;2.75;;;;;;;;;;4975672;28;20039;-67
2023/12/18 16:42:07;;;;;;;3.60;3.10;;;;;;;;;;4975304;28;20029;-67
2023/12/18 16:44:32;;;;;;;4.07;3.33;;;;;;;;;;4975522;28;20109;-67
2023/12/18 16:46:58;;;;;;;3.45;3.15;;;;;;;;;;4975414;28;20031;-68
2023/12/18 16:49:24;;;;;;;4.03;3.10;;;;;;;;;;4975140;28;20026;-67
2023/12/18 16:51:49;;;;;;;3.28;2.85;;;;;;;;;;4975226;28;20034;-67
2023/12/18 16:54:15;;;;;;;4.30;3.25;;;;;;;;;;4975136;28;20063;-67
2023/12/18 16:56:41;;;;;;;4.15;3.30;;;;;;;;;;4975006;28;20065;-66
2023/12/18 16:59:08;;;;;;;3.30;3.00;;;;;;;;;;4975831;28;20034;-67
2023/12/18 17:01:34;;;;;;;4.40;3.42;;;;;;;;;;4975466;28;20463;-67
2023/12/18 17:03:59;;;;;;;3.90;3.20;;;;;;;;;;4975558;28;20022;-67
2023/12/18 17:06:25;;;;;;;5.00;3.17;;;;;;;;;;4975609;28;20110;-68
2023/12/18 17:08:50;;;;;;;5.30;3.08;;;;;;;;;;4975183;28;20046;-67
2023/12/18 17:11:16;;;;;;;8.45;3.55;;;;;;;;;;4974903;28;20023;-67
2023/12/18 17:13:41;;;;;;;4.05;3.13;;;;;;;;;;4974905;28;20551;-67
2023/12/18 17:16:07;;;;;;;4.18;3.63;;;;;;;;;;4974581;28;20023;-67
2023/12/18 17:18:32;;;;;;;7.18;3.55;;;;;;;;;;4974664;28;20109;-68
2023/12/18 17:20:58;;;;;;;4.07;3.30;;;;;;;;;;4974764;28;20058;-67
2023/12/18 17:23:23;;;;;;;6.10;3.78;;;;;;;;;;4974527;28;20605;-67
2023/12/18 17:25:49;;;;;;;4.80;3.85;;;;;;;;;;4974517;28;20137;-67
2023/12/18 17:28:15;;;;;;;6.68;4.00;;;;;;;;;;4974580;28;20053;-67
2023/12/18 17:30:40;;;;;;;7.63;3.80;;;;;;;;;;4974636;28;20102;-67
2023/12/18 17:33:06;;;;;;;5.85;4.00;;;;;;;;;;4974757;28;20116;-67
2023/12/18 17:35:32;;;;;;;4.32;3.72;;;;;;;;;;4974314;28;20038;-67
2023/12/18 17:37:57;;;;;;;6.30;3.70;;;;;;;;;;4974329;28;20464;-67
2023/12/18 17:40:24;;;;;;;6.63;4.00;;;;;;;;;;4974884;28;20029;-68
2023/12/18 17:42:49;;;;;;;5.75;4.18;;;;;;;;;;4974315;28;20019;-67
2023/12/18 17:45:15;;;;;;;3.83;3.40;;;;;;;;;;4973733;28;20382;-68
2023/12/18 17:47:40;;;;;;;4.95;4.05;;;;;;;;;;4974048;28;20035;-67
2023/12/18 17:50:06;;;;;;;4.72;3.75;;;;;;;;;;4974318;28;20030;-67
2023/12/18 17:52:33;;;;;;;4.88;3.53;;;;;;;;;;4974146;28;20031;-68
2023/12/18 17:54:59;;;;;;;8.55;3.78;;;;;;;;;;4974073;28;20436;-68
2023/12/18 17:57:28;;;;;;;4.15;3.33;;;;;;;;;;4973894;28;20113;-67
2023/12/18 17:59:55;;;;;;;4.30;3.50;;;;;;;;;;4974000;28;20031;-67
2023/12/18 18:02:20;;;;;;;4.63;3.40;;;;;;;;;;4973954;28;20034;-69
2023/12/18 18:04:47;;;;;;;4.25;3.58;;;;;;;;;;4974505;28;20039;-68
2023/12/18 18:07:13;;;;;;;6.93;3.50;;;;;;;;;;4973668;28;20093;-67
2023/12/18 18:09:39;;;;;;;6.68;3.75;;;;;;;;;;4974075;28;20031;-68
2023/12/18 18:12:05;;;;;;;7.20;3.85;;;;;;;;;;4974234;28;20101;-66
2023/12/18 18:14:32;;;;;;;7.25;4.25;;;;;;;;;;4973834;28;20038;-67
2023/12/18 18:16:57;;;;;;;6.68;3.63;;;;;;;;;;4973898;28;20027;-67
2023/12/18 18:19:23;;;;;;;4.70;3.63;;;;;;;;;;4973916;28;20394;-66
2023/12/18 18:21:48;;;;;;;6.88;4.20;;;;;;;;;;4973613;28;20451;-65
2023/12/18 18:24:14;;;;;;;7.45;3.95;;;;;;;;;;4973626;28;20108;-68
2023/12/18 18:26:40;;;;;;;6.72;4.03;;;;;;;;;;4973607;28;20602;-70
2023/12/18 18:29:05;;;;;;;6.22;3.70;;;;;;;;;;4973629;28;20026;-66
2023/12/18 18:31:31;;;;;;;10.20;4.22;;;;;;;;;;4973701;28;20114;-67
2023/12/18 18:33:59;;;;;;;11.80;4.40;;;;;;;;;;4973609;28;20077;-67
2023/12/18 18:36:30;;;;;;;5.32;3.92;;;;;;;;;;4973766;28;20023;-67
2023/12/18 18:38:57;;;;;;;7.35;3.90;;;;;;;;;;4973630;28;20038;-67
2023/12/18 18:41:24;;;;;;;5.05;3.67;;;;;;;;;;4973744;28;20037;-68
2023/12/18 18:43:49;;;;;;;6.75;4.03;;;;;;;;;;4973703;28;20033;-69
2023/12/18 18:46:16;;;;;;;4.90;4.40;;;;;;;;;;4974055;28;20122;-67
2023/12/18 18:48:41;;;;;;;5.60;4.20;;;;;;;;;;4956115;28;20027;-68
2023/12/18 18:51:07;;;;;;;4.80;3.70;;;;;;;;;;4973414;28;20031;-68
2023/12/18 18:53:34;;;;;;;4.50;3.70;;;;;;;;;;4973697;28;20019;-68
2023/12/18 18:56:02;;;;;;;4.90;3.97;;;;;;;;;;4973618;28;20049;-68
2023/12/18 18:58:28;;;;;;;4.85;3.80;;;;;;;;;;4977013;28;20034;-68
2023/12/18 19:00:55;;;;;;;5.38;3.83;;;;;;;;;;4977692;28;20628;-67
2023/12/18 19:03:20;;;;;;;5.82;4.18;;;;;;;;;;4977262;28;20430;-67
2023/12/18 19:05:46;;;;;;;5.15;3.90;;;;;;;;;;4959833;28;20030;-67
2023/12/18 19:08:12;;;;;;;5.13;3.75;;;;;;;;;;4977331;28;20035;-67
2023/12/18 19:10:38;;;;;;;4.63;3.63;;;;;;;;;;4977116;28;20485;-68
2023/12/18 19:13:03;;;;;;;5.63;4.40;;;;;;;;;;4977020;28;20041;-67
2023/12/18 19:15:29;;;;;;;5.60;4.00;;;;;;;;;;4977131;28;20027;-67
2023/12/18 19:17:54;;;;;;;7.63;4.00;;;;;;;;;;4977194;28;20477;-67
2023/12/18 19:20:20;;;;;;;8.10;4.22;;;;;;;;;;4977231;28;20035;-68
2023/12/18 19:22:46;;;;;;;5.68;4.35;;;;;;;;;;4976870;28;20551;-67
2023/12/18 19:25:12;;;;;;;8.68;4.47;;;;;;;;;;4976680;28;20031;-66
2023/12/18 19:27:38;;;;;;;5.90;4.18;;;;;;;;;;4976656;28;20417;-65
2023/12/18 19:30:05;;;;;;;5.82;4.00;;;;;;;;;;4976719;28;20031;-68
2023/12/18 19:32:30;;;;;;;7.10;4.40;;;;;;;;;;4959294;28;20394;-68
2023/12/18 19:34:56;;;;;;;5.35;4.22;;;;;;;;;;4976643;28;20019;-67
2023/12/18 19:37:22;;;;;;;16.48;4.20;;;;;;;;;;4980754;28;20065;-68
2023/12/18 19:39:48;;;;;;;8.82;4.43;;;;;;;;;;4995923;28;20466;-67
2023/12/18 19:42:13;;;;;;;9.55;4.70;;;;;;;;;;4995961;28;20505;-66
2023/12/18 19:44:39;;;;;;;8.80;4.50;;;;;;;;;;4996046;28;20030;-67
2023/12/18 19:47:04;;;;;;;6.70;4.43;;;;;;;;;;4995843;28;20034;-67
2023/12/18 19:49:30;;;;;;;13.20;5.05;;;;;;;;;;4995876;28;20030;-67
2023/12/18 19:51:56;;;;;;;9.32;4.70;;;;;;;;;;4995759;28;20102;-67
2023/12/18 19:54:22;;;;;;;5.53;4.60;;;;;;;;;;4995489;28;20076;-66
2023/12/18 19:56:47;;;;;;;11.52;4.65;;;;;;;;;;4995762;28;20034;-67
2023/12/18 19:59:13;;;;;;;7.10;4.00;;;;;;;;;;4995514;28;20431;-66
2023/12/18 20:01:38;;;;;;;7.55;4.18;;;;;;;;;;4995517;28;20034;-66
2023/12/18 20:04:04;;;;;;;5.60;4.35;;;;;;;;;;4995538;28;20169;-67
2023/12/18 20:06:30;;;;;;;5.40;4.18;;;;;;;;;;4995358;28;20026;-67
2023/12/18 20:08:56;;;;;;;6.78;4.63;;;;;;;;;;4994677;28;20030;-69
2023/12/18 20:11:22;;;;;;;7.20;4.50;;;;;;;;;;4995270;28;20037;-66
2023/12/18 20:13:48;;;;;;;6.28;4.30;;;;;;;;;;4995466;28;20023;-66
2023/12/18 20:16:14;;;;;;;6.45;4.32;;;;;;;;;;4995103;28;20398;-68
2023/12/18 20:18:40;;;;;;;6.47;4.40;;;;;;;;;;4995174;28;20026;-66
2023/12/18 20:21:06;;;;;;;6.82;4.40;;;;;;;;;;4995435;28;20037;-67
2023/12/18 20:23:32;;;;;;;6.28;4.38;;;;;;;;;;4992246;28;20039;-67
2023/12/18 20:25:58;;;;;;;12.43;6.00;;;;;;;;;;4985870;28;20033;-68
2023/12/18 20:28:23;;;;;;;6.75;4.78;;;;;;;;;;4975680;28;20019;-67
2023/12/18 20:30:49;;;;;;;7.88;4.63;;;;;;;;;;4975953;28;20031;-66
2023/12/18 20:33:14;;;;;;;5.80;4.15;;;;;;;;;;4979735;28;20535;-69
2023/12/18 20:35:40;;;;;;;6.95;4.60;;;;;;;;;;4995139;28;20446;-68
2023/12/18 20:38:06;;;;;;;6.78;4.10;;;;;;;;;;4994856;28;20039;-68
2023/12/18 20:40:32;;;;;;;7.15;4.43;;;;;;;;;;4995585;28;20114;-67
2023/12/18 20:42:58;;;;;;;6.43;4.45;;;;;;;;;;4995061;28;20022;-67
2023/12/18 20:45:24;;;;;;;8.80;4.55;;;;;;;;;;4994419;28;20030;-67
2023/12/18 20:47:49;;;;;;;5.50;4.30;;;;;;;;;;4994761;28;20038;-67
2023/12/18 20:50:15;;;;;;;5.53;4.28;;;;;;;;;;4993749;28;20426;-67
2023/12/18 20:52:41;;;;;;;9.30;5.15;;;;;;;;;;4994896;28;20434;-67
2023/12/18 20:55:08;;;;;;;5.55;4.43;;;;;;;;;;4995799;28;20030;-67
2023/12/18 20:57:41;;;;;;;5.28;4.45;;;;;;;;;;4994412;28;20105;-67
2023/12/18 21:00:08;;;;;;;5.93;4.38;;;;;;;;;;4994674;28;20046;-67
2023/12/18 21:02:34;;;;;;;7.65;4.75;;;;;;;;;;4995340;28;20037;-67
2023/12/18 21:05:00;;;;;;;6.75;4.60;;;;;;;;;;4996032;28;20395;-67
2023/12/18 21:07:25;;;;;;;6.32;4.55;;;;;;;;;;4994728;28;20027;-67
2023/12/18 21:09:52;;;;;;;5.43;4.35;;;;;;;;;;4994352;28;20463;-67
2023/12/18 21:12:18;;;;;;;5.40;4.25;;;;;;;;;;4995807;28;20533;-67
2023/12/18 21:14:44;;;;;;;7.13;4.60;;;;;;;;;;4994355;28;20471;-67
2023/12/18 21:17:09;;;;;;;5.07;4.22;;;;;;;;;;4994127;28;20031;-67
2023/12/18 21:19:37;;;;;;;6.78;4.50;;;;;;;;;;4994310;28;20134;-67
2023/12/18 21:22:03;;;;;;;6.07;4.60;;;;;;;;;;4994040;28;20105;-67
2023/12/18 21:24:29;;;;;;;5.38;4.30;;;;;;;;;;4976905;28;20137;-67
2023/12/18 21:26:55;;;;;;;7.50;4.72;;;;;;;;;;4995687;28;20534;-67
2023/12/18 21:29:20;;;;;;;7.45;4.40;;;;;;;;;;4993827;28;20064;-69
2023/12/18 21:31:46;;;;;;;5.90;4.15;;;;;;;;;;4993919;28;20069;-66
2023/12/18 21:34:12;;;;;;;6.47;4.03;;;;;;;;;;4993884;28;20113;-67
2023/12/18 21:36:37;;;;;;;5.22;4.30;;;;;;;;;;4993910;28;20026;-70
2023/12/18 21:39:03;;;;;;;7.15;5.13;;;;;;;;;;4993755;28;20336;-67
2023/12/18 21:41:32;;;;;;;8.00;5.38;;;;;;;;;;4993703;28;20494;-62
2023/12/18 21:43:58;;;;;;;9.90;4.80;;;;;;;;;;4993775;28;20061;-70
2023/12/18 21:46:24;;;;;;;11.00;4.88;;;;;;;;;;4993874;28;20030;-67
2023/12/18 21:48:49;;;;;;;6.97;5.18;;;;;;;;;;4976661;28;20487;-67
2023/12/18 21:51:20;;;;;;;7.80;5.10;;;;;;;;;;4994498;28;20019;-67
2023/12/18 21:53:45;;;;;;;;;;;;;;;;;;4994458;28;20045;-67
2023/12/18 21:56:11;;;;;;;6.15;4.60;;;;;;;;;;4994017;28;20366;-67
2023/12/18 21:58:36;;;;;;;6.45;5.03;;;;;;;;;;4994039;28;20030;-67
2023/12/18 22:01:02;;;;;;;6.75;4.80;;;;;;;;;;4994253;28;20022;-68
2023/12/18 22:03:27;;;;;;;9.07;5.70;;;;;;;;;;4993838;28;20022;-67
2023/12/18 22:05:53;;;;;;;6.68;4.50;;;;;;;;;;4993729;28;20022;-67
2023/12/18 22:08:19;;;;;;;7.20;4.82;;;;;;;;;;4993813;28;20463;-66
2023/12/18 22:10:45;;;;;;;7.80;4.88;;;;;;;;;;4993608;28;20033;-67
2023/12/18 22:13:11;;;;;;;6.03;4.47;;;;;;;;;;4993549;28;20027;-67
2023/12/18 22:15:36;;;;;;;5.80;4.40;;;;;;;;;;4976662;28;20396;-67
2023/12/18 22:18:02;;;;;;;7.70;4.78;;;;;;;;;;4993463;28;20033;-66
2023/12/18 22:20:28;;;;;;;6.22;4.68;;;;;;;;;;4993697;28;20026;-67
2023/12/18 22:22:54;;;;;;;8.43;4.97;;;;;;;;;;4976159;28;20559;-67
2023/12/18 22:25:19;;;;;;;6.30;4.80;;;;;;;;;;4992767;28;20042;-67
2023/12/18 22:27:45;;;;;;;5.85;4.88;;;;;;;;;;4993949;28;20042;-67
2023/12/18 22:30:11;;;;;;;9.02;4.55;;;;;;;;;;4993873;28;20022;-66
2023/12/18 22:32:37;;;;;;;7.85;5.10;;;;;;;;;;4993483;28;20033;-66
2023/12/18 22:35:04;;;;;;;6.47;4.55;;;;;;;;;;4993432;28;20102;-66
2023/12/18 22:37:29;;;;;;;8.80;4.95;;;;;;;;;;4993880;28;20034;-66
2023/12/18 22:39:55;;;;;;;6.43;4.43;;;;;;;;;;4993282;28;20040;-66
2023/12/18 22:42:20;;;;;;;5.68;4.60;;;;;;;;;;4993878;28;20033;-66
2023/12/18 22:44:46;;;;;;;6.80;4.90;;;;;;;;;;4993550;28;20032;-67
2023/12/18 22:47:12;;;;;;;6.97;4.72;;;;;;;;;;4993806;28;20459;-67
2023/12/18 22:49:37;;;;;;;5.60;4.60;;;;;;;;;;4993547;28;20505;-67
2023/12/18 22:52:03;;;;;;;7.07;4.90;;;;;;;;;;4993558;28;20029;-68
2023/12/18 22:54:29;;;;;;;5.32;4.18;;;;;;;;;;4993379;28;20022;-67
2023/12/18 22:56:54;;;;;;;5.85;4.53;;;;;;;;;;4993480;28;20050;-68
2023/12/18 22:59:20;;;;;;;13.02;4.70;;;;;;;;;;4993229;28;20034;-67
2023/12/18 23:01:45;;;;;;;6.38;4.93;;;;;;;;;;4993212;28;20037;-67
2023/12/18 23:04:11;;;;;;;5.38;4.40;;;;;;;;;;4993053;28;20031;-68